createdAt,value
2023-04-24T00:00:15.752Z,99.90
2023-04-24T00:02:47.849Z,99.90
2023-04-24T00:05:16.868Z,99.90
2023-04-24T00:07:45.381Z,99.90
2023-04-24T00:10:13.743Z,99.90
2023-04-24T00:12:41.635Z,99.90
2023-04-24T00:15:12.803Z,99.90
2023-04-24T00:17:40.785Z,99.90
2023-04-24T00:20:09.153Z,99.90
2023-04-24T00:22:37.078Z,99.90
2023-04-24T00:25:05.287Z,99.90
2023-04-24T00:27:33.290Z,99.90
2023-04-24T00:30:01.148Z,99.90
2023-04-24T00:32:30.445Z,99.90
2023-04-24T00:34:58.608Z,99.90
2023-04-24T00:37:26.520Z,99.90
2023-04-24T00:39:54.400Z,99.90
2023-04-24T00:42:22.373Z,99.90
2023-04-24T00:44:50.434Z,99.90
2023-04-24T00:47:18.905Z,99.90
2023-04-24T00:49:48.150Z,99.90
2023-04-24T00:52:18.681Z,99.90
2023-04-24T00:54:46.674Z,99.90
2023-04-24T00:57:15.705Z,99.90
2023-04-24T00:59:43.955Z,99.90
2023-04-24T01:02:12.368Z,99.90
2023-04-24T01:04:41.474Z,99.90
2023-04-24T01:07:12.464Z,99.90
2023-04-24T01:09:42.158Z,99.90
2023-04-24T01:12:10.560Z,99.90
2023-04-24T01:14:39.255Z,99.90
2023-04-24T01:17:08.290Z,99.90
2023-04-24T01:19:36.485Z,99.90
2023-04-24T01:22:05.003Z,99.90
2023-04-24T01:24:34.410Z,99.90
2023-04-24T01:27:02.260Z,99.90
2023-04-24T01:29:30.209Z,99.90
2023-04-24T01:31:59.472Z,99.90
2023-04-24T01:34:27.534Z,99.90
2023-04-24T01:36:55.680Z,99.90
2023-04-24T01:39:24.238Z,99.90
2023-04-24T01:41:53.501Z,99.90
2023-04-24T01:44:21.404Z,99.90
2023-04-24T01:46:49.348Z,99.90
2023-04-24T01:49:17.300Z,99.90
2023-04-24T01:51:45.586Z,99.90
2023-04-24T01:54:13.661Z,99.90
2023-04-24T01:56:42.616Z,99.90
2023-04-24T01:59:12.907Z,99.90
2023-04-24T02:01:40.875Z,99.90
2023-04-24T02:04:09.910Z,99.90
2023-04-24T02:06:38.192Z,99.90
2023-04-24T02:09:06.062Z,99.90
2023-04-24T02:11:33.995Z,99.90
2023-04-24T02:14:01.871Z,99.90
2023-04-24T02:16:33.234Z,99.90
2023-04-24T02:19:01.242Z,99.90
2023-04-24T02:21:29.504Z,99.90
2023-04-24T02:23:57.338Z,99.90
2023-04-24T02:26:25.850Z,99.90
2023-04-24T02:28:53.888Z,99.90
2023-04-24T02:31:21.732Z,99.90
2023-04-24T02:33:51.077Z,99.90
2023-04-24T02:36:18.904Z,99.90
2023-04-24T02:38:46.767Z,99.90
2023-04-24T02:41:14.599Z,99.90
2023-04-24T02:43:42.508Z,99.90
2023-04-24T02:46:10.481Z,99.90
2023-04-24T02:48:38.381Z,99.90
2023-04-24T02:51:08.598Z,99.90
2023-04-24T02:53:36.465Z,99.90
2023-04-24T02:56:04.354Z,99.90
2023-04-24T02:58:32.406Z,99.90
2023-04-24T03:01:00.405Z,99.90
2023-04-24T03:03:28.418Z,99.90
2023-04-24T03:05:56.729Z,99.90
2023-04-24T03:08:26.034Z,99.90
2023-04-24T03:10:53.918Z,99.90
2023-04-24T03:13:21.778Z,98.60
2023-04-24T03:15:49.680Z,97.70
2023-04-24T03:18:17.580Z,99.30
2023-04-24T03:20:47.459Z,99.50
2023-04-24T03:23:15.410Z,98.50
2023-04-24T03:25:44.821Z,98.20
2023-04-24T03:28:12.673Z,97.00
2023-04-24T03:30:40.500Z,97.90
2023-04-24T03:33:08.374Z,99.90
2023-04-24T03:35:37.226Z,99.90
2023-04-24T03:38:05.647Z,99.90
2023-04-24T03:40:34.579Z,99.90
2023-04-24T03:43:03.924Z,99.90
2023-04-24T03:45:31.798Z,99.90
2023-04-24T03:47:59.770Z,99.90
2023-04-24T03:50:30.092Z,99.90
2023-04-24T03:52:57.972Z,99.90
2023-04-24T03:55:26.021Z,99.90
2023-04-24T03:57:53.845Z,99.50
2023-04-24T04:00:23.197Z,99.50
2023-04-24T04:02:51.115Z,98.90
2023-04-24T04:05:19.152Z,99.30
2023-04-24T04:07:47.142Z,99.90
2023-04-24T04:10:15.290Z,99.90
2023-04-24T04:12:43.131Z,99.90
2023-04-24T04:15:11.354Z,99.90
2023-04-24T04:17:40.746Z,99.90
2023-04-24T04:20:10.964Z,99.90
2023-04-24T04:22:39.129Z,99.90
2023-04-24T04:25:07.585Z,99.90
2023-04-24T04:27:35.536Z,99.90
2023-04-24T04:30:05.624Z,99.90
2023-04-24T04:32:34.127Z,99.90
2023-04-24T04:35:04.572Z,99.90
2023-04-24T04:37:32.448Z,99.90
2023-04-24T04:40:00.306Z,99.90
2023-04-24T04:42:29.333Z,99.90
2023-04-24T04:44:58.557Z,99.90
2023-04-24T04:47:27.591Z,99.90
2023-04-24T04:49:55.619Z,99.90
2023-04-24T04:52:27.525Z,99.90
2023-04-24T04:54:55.563Z,99.90
2023-04-24T04:57:23.495Z,99.90
2023-04-24T04:59:51.382Z,99.90
2023-04-24T05:02:19.627Z,99.90
2023-04-24T05:04:47.612Z,99.90
2023-04-24T05:07:15.687Z,99.90
2023-04-24T05:09:45.786Z,99.90
2023-04-24T05:12:13.742Z,99.90
2023-04-24T05:14:41.605Z,99.90
2023-04-24T05:17:09.573Z,99.90
2023-04-24T05:19:38.961Z,99.90
2023-04-24T05:22:07.818Z,99.90
2023-04-24T05:24:35.927Z,99.90
2023-04-24T05:27:06.190Z,99.90
2023-04-24T05:29:34.228Z,99.90
2023-04-24T05:32:02.580Z,99.90
2023-04-24T05:34:30.470Z,99.90
2023-04-24T05:36:58.307Z,99.90
2023-04-24T05:39:26.709Z,99.90
2023-04-24T05:41:54.598Z,99.90
2023-04-24T05:44:23.912Z,99.90
2023-04-24T05:46:51.861Z,99.90
2023-04-24T05:49:19.781Z,99.90
2023-04-24T05:51:47.625Z,99.90
2023-04-24T05:54:15.567Z,99.90
2023-04-24T05:56:43.683Z,99.90
2023-04-24T05:59:11.571Z,99.90
2023-04-24T06:01:40.829Z,99.90
2023-04-24T06:04:08.948Z,99.90
2023-04-24T06:06:37.188Z,99.90
2023-04-24T06:09:05.794Z,99.90
2023-04-24T06:11:33.833Z,99.90
2023-04-24T06:14:01.674Z,99.90
2023-04-24T06:16:29.533Z,99.90
2023-04-24T06:18:59.205Z,99.90
2023-04-24T06:21:27.104Z,99.90
2023-04-24T06:23:55.006Z,99.90
2023-04-24T06:26:23.122Z,99.90
2023-04-24T06:28:51.368Z,99.90
2023-04-24T06:31:19.271Z,99.90
2023-04-24T06:33:47.164Z,99.90
2023-04-24T06:36:16.606Z,99.90
2023-04-24T06:38:44.461Z,99.90
2023-04-24T06:41:12.453Z,99.90
2023-04-24T06:43:40.301Z,99.90
2023-04-24T06:46:08.267Z,99.90
2023-04-24T06:48:36.235Z,99.90
2023-04-24T06:51:04.256Z,99.90
2023-04-24T06:53:33.454Z,99.90
2023-04-24T06:56:01.513Z,99.90
2023-04-24T06:58:29.351Z,99.90
2023-04-24T07:00:57.317Z,99.90
2023-04-24T07:03:25.702Z,99.90
2023-04-24T07:05:54.339Z,99.90
2023-04-24T07:08:23.054Z,99.90
2023-04-24T07:10:52.769Z,99.90
2023-04-24T07:13:20.663Z,99.90
2023-04-24T07:15:50.059Z,99.90
2023-04-24T07:18:18.073Z,99.90
2023-04-24T07:20:46.048Z,99.90
2023-04-24T07:23:14.114Z,99.90
2023-04-24T07:25:42.026Z,99.90
2023-04-24T07:28:11.314Z,99.90
2023-04-24T07:30:39.185Z,98.90
2023-04-24T07:35:36.423Z,97.30
2023-04-24T07:38:04.271Z,97.40
2023-04-24T07:40:32.138Z,95.50
2023-04-24T07:43:00.315Z,96.00
2023-04-24T07:45:29.620Z,96.60
2023-04-24T07:47:58.387Z,95.10
2023-04-24T07:50:26.281Z,94.50
2023-04-24T07:52:54.143Z,94.70
2023-04-24T07:55:24.185Z,93.60
2023-04-24T07:57:53.796Z,94.30
2023-04-24T08:00:22.033Z,95.90
2023-04-24T08:02:51.519Z,91.50
2023-04-24T08:05:19.639Z,95.30
2023-04-24T08:07:49.626Z,95.80
2023-04-24T08:10:17.461Z,96.10
2023-04-24T08:12:45.333Z,95.80
2023-04-24T08:15:13.215Z,91.50
2023-04-24T08:17:41.376Z,90.60
2023-04-24T08:20:14.531Z,90.10
2023-04-24T08:22:42.517Z,91.00
2023-04-24T08:25:11.001Z,91.20
2023-04-24T08:27:39.973Z,58.40
2023-04-24T08:30:08.905Z,55.80
2023-04-24T08:32:36.825Z,60.90
2023-04-24T08:35:05.020Z,68.00
2023-04-24T08:37:34.593Z,64.10
2023-04-24T08:40:02.960Z,73.40
2023-04-24T08:42:33.596Z,80.40
2023-04-24T08:45:01.742Z,76.30
2023-04-24T08:47:30.790Z,82.00
2023-04-24T08:50:00.649Z,76.60
2023-04-24T08:52:29.487Z,76.10
2023-04-24T08:54:59.005Z,80.00
2023-04-24T08:57:27.100Z,79.80
2023-04-24T08:59:55.317Z,81.90
2023-04-24T09:02:23.495Z,90.60
2023-04-24T09:04:51.901Z,68.70
2023-04-24T09:07:20.189Z,58.90
2023-04-24T09:09:48.404Z,62.80
2023-04-24T09:12:17.771Z,66.40
2023-04-24T09:14:46.609Z,69.90
2023-04-24T09:17:14.753Z,63.50
2023-04-24T09:19:43.077Z,68.20
2023-04-24T09:22:12.189Z,61.10
2023-04-24T09:24:40.603Z,57.50
2023-04-24T09:27:11.208Z,74.10
2023-04-24T09:29:40.695Z,64.70
2023-04-24T09:32:22.645Z,59.40
2023-04-24T09:34:51.382Z,55.60
2023-04-24T09:37:29.484Z,44.40
2023-04-24T09:40:09.557Z,37.90
2023-04-24T09:42:37.560Z,41.70
2023-04-24T09:47:40.683Z,38.70
2023-04-24T09:50:17.861Z,26.40
2023-04-24T09:52:48.742Z,29.60
2023-04-24T09:55:18.448Z,30.80
2023-04-24T09:57:49.836Z,41.30
2023-04-24T10:00:21.571Z,39.50
2023-04-24T10:02:52.109Z,34.70
2023-04-24T10:05:20.136Z,42.70
2023-04-24T10:07:50.031Z,43.80
2023-04-24T10:10:18.395Z,31.80
2023-04-24T10:12:46.286Z,42.80
2023-04-24T10:15:14.898Z,19.70
2023-04-24T10:17:44.533Z,15.70
2023-04-24T10:20:12.566Z,17.50
2023-04-24T10:22:40.465Z,25.70
2023-04-24T10:25:09.070Z,18.50
2023-04-24T10:27:37.099Z,22.50
2023-04-24T10:30:05.329Z,15.00
2023-04-24T10:32:33.260Z,8.50
2023-04-24T10:35:03.253Z,12.80
2023-04-24T10:37:37.222Z,9.90
2023-04-24T10:40:05.527Z,11.40
2023-04-24T10:42:33.400Z,7.40
2023-04-24T10:45:03.108Z,14.40
2023-04-24T10:47:31.431Z,17.00
2023-04-24T10:50:04.074Z,12.80
2023-04-24T10:52:45.999Z,15.00
2023-04-24T10:55:14.744Z,18.50
2023-04-24T10:58:02.653Z,38.40
2023-04-24T11:00:30.580Z,43.80
2023-04-24T11:02:58.864Z,27.80
2023-04-24T11:05:41.716Z,22.60
2023-04-24T11:08:14.573Z,49.50
2023-04-24T11:10:43.170Z,48.10
2023-04-24T11:13:12.676Z,52.60
2023-04-24T11:15:43.203Z,28.80
2023-04-24T11:18:14.855Z,24.90
2023-04-24T11:20:43.932Z,38.70
2023-04-24T11:23:14.228Z,31.70
2023-04-24T11:25:43.707Z,57.40
2023-04-24T11:28:16.835Z,57.00
2023-04-24T11:30:44.814Z,56.30
2023-04-24T11:33:12.855Z,59.50
2023-04-24T11:35:41.816Z,35.10
2023-04-24T11:40:40.561Z,33.00
2023-04-24T11:43:10.953Z,44.70
2023-04-24T11:45:38.870Z,45.10
2023-04-24T11:48:06.961Z,31.00
2023-04-24T11:50:35.254Z,43.70
2023-04-24T11:53:03.180Z,41.10
2023-04-24T11:55:31.402Z,59.70
2023-04-24T11:58:00.242Z,42.30
2023-04-24T12:00:30.914Z,49.40
2023-04-24T12:03:08.883Z,45.50
2023-04-24T12:05:37.507Z,26.30
2023-04-24T12:08:05.955Z,27.00
2023-04-24T12:10:35.588Z,26.90
2023-04-24T12:13:03.654Z,25.70
2023-04-24T12:15:33.275Z,25.60
2023-04-24T12:18:01.336Z,12.40
2023-04-24T12:20:29.750Z,12.10
2023-04-24T12:22:58.484Z,14.00
2023-04-24T12:25:27.357Z,12.50
2023-04-24T12:27:56.166Z,11.60
2023-04-24T12:30:28.218Z,12.30
2023-04-24T12:32:59.145Z,12.50
2023-04-24T12:35:29.134Z,11.80
2023-04-24T12:37:57.120Z,8.70
2023-04-24T12:40:27.299Z,13.80
2023-04-24T12:42:56.856Z,18.20
2023-04-24T12:45:26.309Z,15.90
2023-04-24T12:47:54.156Z,10.50
2023-04-24T12:50:23.441Z,14.80
2023-04-24T12:52:51.295Z,15.10
2023-04-24T12:55:19.192Z,9.80
2023-04-24T12:57:47.070Z,3.70
2023-04-24T13:00:16.031Z,4.50
2023-04-24T13:02:45.279Z,6.20
2023-04-24T13:05:14.793Z,6.50
2023-04-24T13:07:44.014Z,2.70
2023-04-24T13:10:12.146Z,4.90
2023-04-24T13:12:40.005Z,5.00
2023-04-24T13:15:08.564Z,11.90
2023-04-24T13:17:36.540Z,19.10
2023-04-24T13:20:04.805Z,17.10
2023-04-24T13:22:32.784Z,23.10
2023-04-24T13:25:02.420Z,26.90
2023-04-24T13:27:30.374Z,21.70
2023-04-24T13:29:58.278Z,22.40
2023-04-24T13:32:26.322Z,29.40
2023-04-24T13:34:54.303Z,37.20
2023-04-24T13:37:23.310Z,31.20
2023-04-24T13:39:52.325Z,43.20
2023-04-24T13:42:21.886Z,36.70
2023-04-24T13:44:49.760Z,38.10
2023-04-24T13:47:17.664Z,35.70
2023-04-24T13:49:45.487Z,29.90
2023-04-24T13:52:13.365Z,43.50
2023-04-24T13:54:41.274Z,45.60
2023-04-24T13:57:09.173Z,38.40
2023-04-24T13:59:38.434Z,28.90
2023-04-24T14:02:06.501Z,29.40
2023-04-24T14:04:34.783Z,22.20
2023-04-24T14:07:02.731Z,27.60
2023-04-24T14:09:30.624Z,24.20
2023-04-24T14:11:58.556Z,24.00
2023-04-24T14:14:26.448Z,26.40
2023-04-24T14:16:55.702Z,30.90
2023-04-24T14:19:23.607Z,25.10
2023-04-24T14:21:51.613Z,32.10
2023-04-24T14:24:19.503Z,35.10
2023-04-24T14:26:47.419Z,24.30
2023-04-24T14:29:15.623Z,28.40
2023-04-24T14:31:43.787Z,30.40
2023-04-24T14:34:13.302Z,41.30
2023-04-24T14:36:41.502Z,60.40
2023-04-24T14:39:09.440Z,57.60
2023-04-24T14:41:38.172Z,52.20
2023-04-24T14:44:06.373Z,40.10
2023-04-24T14:46:34.993Z,30.10
2023-04-24T14:49:03.027Z,16.70
2023-04-24T14:51:32.514Z,28.50
2023-04-24T14:54:00.587Z,20.00
2023-04-24T14:56:28.608Z,23.70
2023-04-24T14:58:56.977Z,33.10
2023-04-24T15:01:25.011Z,26.90
2023-04-24T15:03:53.483Z,34.60
2023-04-24T15:06:21.610Z,43.60
2023-04-24T15:08:50.952Z,54.60
2023-04-24T15:11:18.952Z,47.20
2023-04-24T15:13:47.355Z,34.20
2023-04-24T15:16:15.705Z,45.60
2023-04-24T15:18:43.749Z,41.60
2023-04-24T15:21:13.602Z,29.40
2023-04-24T15:23:41.462Z,40.90
2023-04-24T15:26:10.683Z,41.00
2023-04-24T15:28:38.606Z,28.80
2023-04-24T15:31:06.535Z,23.30
2023-04-24T15:33:34.506Z,35.70
2023-04-24T15:36:02.524Z,17.10
2023-04-24T15:38:30.516Z,18.90
2023-04-24T15:40:58.478Z,23.50
2023-04-24T15:43:27.745Z,19.30
2023-04-24T15:45:55.652Z,25.90
2023-04-24T15:48:23.537Z,26.50
2023-04-24T15:50:51.561Z,17.80
2023-04-24T15:53:22.288Z,22.20
2023-04-24T15:55:50.491Z,18.20
2023-04-24T15:58:18.441Z,16.90
2023-04-24T16:00:47.711Z,21.10
2023-04-24T16:03:15.842Z,23.00
2023-04-24T16:05:43.875Z,23.40
2023-04-24T16:08:11.704Z,28.30
2023-04-24T16:10:39.614Z,28.80
2023-04-24T16:13:07.534Z,7.20
2023-04-24T16:15:36.194Z,11.00
2023-04-24T16:18:05.655Z,13.70
2023-04-24T16:20:33.650Z,13.90
2023-04-24T16:23:01.651Z,7.30
2023-04-24T16:25:29.948Z,17.30
2023-04-24T16:27:57.921Z,4.00
2023-04-24T16:30:26.179Z,13.80
2023-04-24T16:32:54.084Z,17.30
2023-04-24T16:35:23.368Z,16.40
2023-04-24T16:37:51.292Z,16.50
2023-04-24T16:40:19.596Z,28.40
2023-04-24T16:42:48.582Z,18.80
2023-04-24T16:45:16.493Z,29.40
2023-04-24T16:47:44.393Z,29.60
2023-04-24T16:50:12.456Z,30.50
2023-04-24T16:52:42.030Z,22.40
2023-04-24T16:55:10.575Z,24.20
2023-04-24T16:57:38.605Z,25.50
2023-04-24T17:00:07.962Z,25.80
2023-04-24T17:02:36.003Z,18.90
2023-04-24T17:05:04.016Z,25.30
2023-04-24T17:07:32.137Z,24.00
2023-04-24T17:10:01.428Z,26.40
2023-04-24T17:12:29.311Z,19.90
2023-04-24T17:14:57.214Z,21.10
2023-04-24T17:17:25.537Z,19.60
2023-04-24T17:19:53.441Z,17.30
2023-04-24T17:22:21.311Z,15.00
2023-04-24T17:24:49.373Z,19.40
2023-04-24T17:27:18.631Z,18.10
2023-04-24T17:29:46.648Z,14.10
2023-04-24T17:32:14.593Z,14.00
2023-04-24T17:34:42.515Z,12.40
2023-04-24T17:37:10.461Z,10.40
2023-04-24T17:39:38.354Z,7.10
2023-04-24T17:42:06.461Z,8.30
2023-04-24T17:44:35.830Z,3.10
2023-04-24T17:47:04.842Z,9.20
2023-04-24T17:49:32.808Z,1.00
2023-04-24T17:52:00.867Z,1.00
2023-04-24T17:54:28.742Z,1.00
2023-04-24T17:56:56.626Z,1.00
2023-04-24T17:59:24.484Z,4.00
2023-04-24T18:01:54.065Z,3.90
2023-04-24T18:04:22.188Z,7.80
2023-04-24T18:06:50.234Z,4.40
2023-04-24T18:09:20.755Z,2.40
2023-04-24T18:11:49.844Z,1.10
2023-04-24T18:14:17.734Z,3.30
2023-04-24T18:16:45.657Z,2.00
2023-04-24T18:19:14.904Z,2.20
2023-04-24T18:21:42.782Z,1.00
2023-04-24T18:24:10.851Z,1.00
2023-04-24T18:26:38.730Z,1.00
2023-04-24T18:29:06.900Z,1.00
2023-04-24T18:31:35.344Z,3.40
2023-04-24T18:34:03.217Z,5.20
2023-04-24T18:36:32.680Z,8.00
2023-04-24T18:39:00.533Z,6.00
2023-04-24T18:41:28.417Z,9.70
2023-04-24T18:43:58.334Z,16.00
2023-04-24T18:46:26.327Z,21.10
2023-04-24T18:48:54.195Z,17.70
2023-04-24T18:51:22.066Z,24.90
2023-04-24T18:53:51.288Z,26.90
2023-04-24T18:56:19.394Z,23.50
2023-04-24T18:58:47.450Z,25.60
2023-04-24T19:01:15.947Z,24.60
2023-04-24T19:03:43.951Z,28.30
2023-04-24T19:06:11.880Z,28.30
2023-04-24T19:08:42.383Z,29.40
2023-04-24T19:11:11.676Z,21.80
2023-04-24T19:13:39.528Z,23.10
2023-04-24T19:16:07.385Z,16.80
2023-04-24T19:18:35.536Z,15.50
2023-04-24T19:21:03.352Z,13.10
2023-04-24T19:23:32.593Z,9.90
2023-04-24T19:26:00.493Z,5.10
2023-04-24T19:28:29.793Z,6.10
2023-04-24T19:30:58.782Z,9.80
2023-04-24T19:33:26.741Z,8.00
2023-04-24T19:35:54.580Z,7.50
2023-04-24T19:38:22.814Z,8.00
2023-04-24T19:40:50.999Z,7.10
2023-04-24T19:43:18.864Z,7.50
2023-04-24T19:45:48.123Z,4.00
2023-04-24T19:48:16.045Z,1.40
2023-04-24T19:50:44.511Z,1.00
2023-04-24T19:53:12.503Z,1.00
2023-04-24T19:55:40.363Z,1.00
2023-04-24T19:58:08.338Z,1.00
2023-04-24T20:00:36.248Z,1.00
2023-04-24T20:03:05.525Z,1.00
2023-04-24T20:05:33.573Z,1.00
2023-04-24T20:08:02.059Z,1.00
2023-04-24T20:10:29.948Z,1.00
2023-04-24T20:12:57.926Z,1.00
2023-04-24T20:15:25.838Z,1.00
2023-04-24T20:17:53.669Z,1.00
2023-04-24T20:20:23.192Z,1.00
2023-04-24T20:22:51.199Z,1.00
2023-04-24T20:25:19.124Z,1.00
2023-04-24T20:27:47.005Z,1.00
2023-04-24T20:30:15.943Z,1.00
2023-04-24T20:32:44.031Z,1.00
2023-04-24T20:35:12.098Z,1.00
2023-04-24T20:37:43.804Z,1.00
2023-04-24T20:40:14.168Z,1.00
2023-04-24T20:42:42.063Z,1.00
2023-04-24T20:45:10.394Z,1.00
2023-04-24T20:47:38.365Z,1.00
2023-04-24T20:50:07.114Z,1.00
2023-04-24T20:52:35.000Z,1.00
2023-04-24T20:55:04.684Z,1.00
2023-04-24T20:57:32.602Z,1.00
2023-04-24T21:00:00.451Z,1.00
2023-04-24T21:02:28.397Z,1.00
2023-04-24T21:04:56.358Z,1.00
2023-04-24T21:07:24.198Z,1.00
2023-04-24T21:09:52.014Z,1.00
2023-04-24T21:12:21.248Z,1.00
2023-04-24T21:14:51.023Z,1.00
2023-04-24T21:17:19.311Z,1.00
2023-04-24T21:19:47.183Z,1.00
2023-04-24T21:22:15.022Z,1.00
2023-04-24T21:24:42.880Z,1.00
2023-04-24T21:27:10.766Z,1.00
2023-04-24T21:29:40.024Z,1.00
2023-04-24T21:32:07.940Z,1.00
2023-04-24T21:34:35.891Z,1.00
2023-04-24T21:37:03.730Z,1.00
2023-04-24T21:39:31.558Z,1.00
2023-04-24T21:41:59.513Z,1.00
2023-04-24T21:44:27.400Z,1.00
2023-04-24T21:46:56.754Z,1.00
2023-04-24T21:49:24.534Z,1.00
2023-04-24T21:51:52.353Z,1.00
2023-04-24T21:54:20.708Z,1.00
2023-04-24T21:56:48.560Z,1.00
2023-04-24T21:59:16.462Z,1.00
2023-04-24T22:01:44.638Z,1.00
2023-04-24T22:04:14.069Z,1.00
2023-04-24T22:06:42.167Z,1.00
2023-04-24T22:09:10.868Z,1.00
2023-04-24T22:11:38.822Z,1.00
2023-04-24T22:14:07.231Z,1.00
2023-04-24T22:16:35.377Z,1.00
2023-04-24T22:19:04.909Z,1.00
2023-04-24T22:21:34.431Z,1.00
2023-04-24T22:24:02.290Z,1.00
2023-04-24T22:26:30.163Z,1.00
2023-04-24T22:28:58.054Z,1.00
2023-04-24T22:31:25.938Z,1.00
2023-04-24T22:33:53.912Z,1.00
2023-04-24T22:36:21.800Z,1.00
2023-04-24T22:38:51.622Z,1.00
2023-04-24T22:41:19.627Z,1.00
2023-04-24T22:43:47.721Z,1.00
2023-04-24T22:46:15.856Z,1.00
2023-04-24T22:48:44.182Z,1.00
2023-04-24T22:51:12.142Z,1.00
2023-04-24T22:53:39.998Z,1.00
2023-04-24T22:56:09.425Z,1.00
2023-04-24T22:58:37.254Z,1.00
2023-04-24T23:01:05.170Z,1.00
2023-04-24T23:03:33.659Z,1.00
2023-04-24T23:06:01.706Z,1.00
2023-04-24T23:08:30.616Z,1.00
2023-04-24T23:10:58.566Z,1.00
2023-04-24T23:13:27.977Z,1.00
2023-04-24T23:15:55.892Z,1.00
2023-04-24T23:18:23.756Z,1.00
2023-04-24T23:20:51.929Z,1.00
2023-04-24T23:23:19.884Z,1.00
2023-04-24T23:25:47.733Z,1.00
2023-04-24T23:28:15.692Z,1.00
2023-04-24T23:30:44.940Z,1.00
2023-04-24T23:33:13.980Z,1.00
2023-04-24T23:35:41.900Z,1.00
2023-04-24T23:38:09.777Z,1.00
2023-04-24T23:40:37.637Z,1.00
2023-04-24T23:43:07.974Z,1.00
2023-04-24T23:45:37.031Z,1.00
2023-04-24T23:48:06.716Z,1.00
2023-04-24T23:50:34.637Z,1.00
2023-04-24T23:53:02.681Z,1.00
2023-04-24T23:55:30.647Z,1.00
2023-04-24T23:57:58.503Z,1.00
